createdAt,value
2019-04-22T00:02:03.870Z,11.10
2019-04-22T00:04:45.050Z,11.00
2019-04-22T00:07:22.183Z,10.90
2019-04-22T00:09:58.308Z,11.00
2019-04-22T00:12:36.693Z,11.00
2019-04-22T00:14:59.663Z,10.80
2019-04-22T00:17:40.073Z,10.70
2019-04-22T00:20:04.906Z,10.70
2019-04-22T00:22:32.648Z,10.80
2019-04-22T00:25:10.567Z,10.80
2019-04-22T00:27:33.952Z,10.70
2019-04-22T00:29:59.899Z,10.60
2019-04-22T00:32:31.551Z,10.50
2019-04-22T00:35:00.594Z,10.40
2019-04-22T00:37:39.052Z,10.30
2019-04-22T00:40:07.278Z,10.30
2019-04-22T00:42:45.641Z,10.40
2019-04-22T00:45:11.631Z,10.40
2019-04-22T00:47:52.535Z,10.40
2019-04-22T00:50:23.809Z,10.40
2019-04-22T00:52:40.447Z,10.30
2019-04-22T00:55:15.213Z,10.30
2019-04-22T00:57:42.571Z,10.30
2019-04-22T01:00:11.949Z,10.20
2019-04-22T01:02:49.567Z,10.30
2019-04-22T01:05:16.631Z,10.30
2019-04-22T01:07:44.523Z,10.20
2019-04-22T01:10:18.774Z,10.20
2019-04-22T01:12:46.757Z,10.20
2019-04-22T01:15:17.077Z,10.20
2019-04-22T01:17:44.983Z,10.20
2019-04-22T01:20:29.392Z,10.20
2019-04-22T01:22:45.213Z,10.10
2019-04-22T01:25:14.688Z,10.10
2019-04-22T01:27:40.291Z,9.90
2019-04-22T01:30:08.481Z,9.90
2019-04-22T01:32:31.098Z,9.90
2019-04-22T01:35:09.838Z,9.90
2019-04-22T01:37:45.578Z,10.00
2019-04-22T01:40:23.826Z,10.00
2019-04-22T01:42:56.263Z,10.00
2019-04-22T01:45:26.153Z,9.90
2019-04-22T01:47:49.093Z,10.00
2019-04-22T01:50:26.530Z,9.90
2019-04-22T01:53:03.326Z,9.90
2019-04-22T01:55:32.418Z,10.10
2019-04-22T01:57:54.094Z,9.90
2019-04-22T02:00:34.378Z,9.80
2019-04-22T02:03:07.324Z,9.80
2019-04-22T02:05:29.633Z,9.80
2019-04-22T02:08:09.629Z,9.70
2019-04-22T02:10:36.242Z,9.70
2019-04-22T02:13:03.066Z,9.60
2019-04-22T02:15:31.470Z,9.70
2019-04-22T02:18:11.759Z,9.70
2019-04-22T02:20:37.600Z,9.70
2019-04-22T02:23:40.915Z,9.70
2019-04-22T02:25:56.449Z,9.50
2019-04-22T02:28:25.729Z,9.50
2019-04-22T02:31:13.875Z,9.40
2019-04-22T02:38:44.559Z,9.70
2019-04-22T02:46:15.676Z,9.50
2019-04-22T02:48:48.229Z,9.50
2019-04-22T02:51:08.736Z,9.40
2019-04-22T02:54:00.534Z,9.50
2019-04-22T02:56:15.627Z,9.40
2019-04-22T03:01:05.965Z,9.20
2019-04-22T03:13:51.125Z,9.20
2019-04-22T03:21:15.927Z,9.30
2019-04-22T03:23:45.494Z,9.20
2019-04-22T03:26:18.465Z,9.20
2019-04-22T03:28:47.686Z,9.20
2019-04-22T03:41:51.895Z,9.10
2019-04-22T03:46:46.865Z,9.10
2019-04-22T03:54:13.125Z,9.00
2019-04-22T03:57:21.943Z,9.00
2019-04-22T03:59:22.125Z,9.00
2019-04-22T04:01:46.434Z,9.10
2019-04-22T04:04:24.312Z,9.00
2019-04-22T04:06:50.209Z,9.10
2019-04-22T04:09:16.826Z,9.00
2019-04-22T04:11:57.147Z,9.00
2019-04-22T04:14:19.559Z,9.00
2019-04-22T04:16:50.534Z,9.00
2019-04-22T04:19:19.661Z,9.00
2019-04-22T04:24:42.219Z,9.00
2019-04-22T04:29:27.824Z,8.90
2019-04-22T04:31:51.310Z,9.00
2019-04-22T04:34:28.597Z,9.10
2019-04-22T04:36:56.836Z,9.10
2019-04-22T04:46:51.539Z,9.10
2019-04-22T04:51:47.176Z,9.30
2019-04-22T04:56:56.753Z,9.30
2019-04-22T04:59:29.316Z,9.40
2019-04-22T05:04:26.422Z,9.50
2019-04-22T05:14:28.799Z,9.40
2019-04-22T05:16:54.046Z,9.50
2019-04-22T05:19:22.549Z,9.40
2019-04-22T05:21:53.457Z,9.50
2019-04-22T05:24:24.284Z,9.50
2019-04-22T05:27:15.065Z,9.60
2019-04-22T05:29:34.346Z,9.80
2019-04-22T05:34:25.847Z,10.10
2019-04-22T05:36:52.823Z,10.20
2019-04-22T05:39:22.665Z,10.40
2019-04-22T05:42:00.952Z,11.30
2019-04-22T05:44:39.560Z,12.20
2019-04-22T05:46:52.793Z,13.00
2019-04-22T05:51:57.018Z,14.20
2019-04-22T05:54:28.949Z,15.00
2019-04-22T05:56:51.940Z,15.70
2019-04-22T05:59:32.000Z,16.30
2019-04-22T06:04:32.410Z,17.80
2019-04-22T06:07:00.465Z,18.20
2019-04-22T06:09:28.762Z,18.10
2019-04-22T06:11:59.096Z,18.10
2019-04-22T06:14:30.804Z,19.00
2019-04-22T06:17:08.278Z,19.70
2019-04-22T06:19:31.584Z,19.50
2019-04-22T06:22:06.847Z,20.20
2019-04-22T06:24:38.880Z,20.60
2019-04-22T06:29:32.013Z,21.70
2019-04-22T06:32:23.106Z,22.20
2019-04-22T06:34:35.817Z,22.60
2019-04-22T06:37:16.002Z,23.00
2019-04-22T06:39:36.922Z,23.80
2019-04-22T06:44:44.102Z,25.30
2019-04-22T06:47:15.003Z,25.70
2019-04-22T06:49:42.187Z,25.70
2019-04-22T06:52:19.668Z,25.20
2019-04-22T06:55:03.916Z,24.30
2019-04-22T06:57:16.858Z,22.20
2019-04-22T06:59:42.648Z,21.20
2019-04-22T07:02:16.589Z,20.30
2019-04-22T07:04:49.514Z,19.70
2019-04-22T07:07:12.819Z,19.70
2019-04-22T07:09:48.689Z,19.50
2019-04-22T07:14:48.816Z,19.70
2019-04-22T07:17:23.251Z,19.80
2019-04-22T07:19:47.178Z,20.10
2019-04-22T07:22:22.818Z,20.00
2019-04-22T07:24:53.903Z,19.60
2019-04-22T07:27:23.438Z,19.40
2019-04-22T07:29:58.189Z,18.80
2019-04-22T07:32:39.926Z,18.40
2019-04-22T07:34:52.801Z,17.80
2019-04-22T07:37:31.769Z,17.90
2019-04-22T07:39:50.329Z,17.70
2019-04-22T07:42:24.789Z,17.50
2019-04-22T07:44:58.051Z,17.60
2019-04-22T07:50:01.979Z,17.80
2019-04-22T07:52:27.793Z,17.80
2019-04-22T07:54:59.525Z,17.80
2019-04-22T07:57:32.630Z,17.80
2019-04-22T08:00:02.946Z,17.80
2019-04-22T08:02:32.804Z,18.00
2019-04-22T08:05:05.435Z,18.00
2019-04-22T08:07:30.157Z,18.00
2019-04-22T08:10:08.469Z,18.10
2019-04-22T08:12:36.014Z,18.00
2019-04-22T08:14:58.371Z,18.10
2019-04-22T08:17:53.427Z,18.40
2019-04-22T08:20:09.268Z,18.50
2019-04-22T08:22:34.072Z,18.60
2019-04-22T08:25:06.312Z,18.80
2019-04-22T08:27:35.320Z,19.00
2019-04-22T08:30:14.438Z,19.20
2019-04-22T08:32:41.266Z,19.30
2019-04-22T08:35:13.198Z,19.40
2019-04-22T08:37:51.186Z,19.30
2019-04-22T08:40:21.307Z,19.40
2019-04-22T08:42:53.108Z,19.30
2019-04-22T08:45:16.090Z,19.20
2019-04-22T08:47:41.778Z,19.30
2019-04-22T08:50:16.388Z,19.10
2019-04-22T08:52:49.467Z,19.20
2019-04-22T08:55:20.658Z,19.50
2019-04-22T08:58:08.443Z,19.40
2019-04-22T09:00:28.004Z,19.60
2019-04-22T09:02:54.116Z,19.90
2019-04-22T09:05:37.407Z,20.00
2019-04-22T09:07:56.767Z,20.00
2019-04-22T09:10:24.181Z,20.00
2019-04-22T09:13:00.857Z,20.20
2019-04-22T09:15:26.657Z,20.00
2019-04-22T09:17:59.788Z,19.90
2019-04-22T09:20:28.159Z,20.20
2019-04-22T09:22:55.973Z,20.10
2019-04-22T09:25:29.467Z,20.10
2019-04-22T09:27:56.066Z,20.20
2019-04-22T09:30:37.162Z,20.30
2019-04-22T09:33:04.255Z,20.50
2019-04-22T09:38:16.940Z,20.50
2019-04-22T09:40:45.890Z,20.60
2019-04-22T09:43:05.062Z,20.80
2019-04-22T09:45:29.421Z,20.80
2019-04-22T09:48:08.422Z,20.90
2019-04-22T09:50:38.021Z,20.80
2019-04-22T09:53:08.460Z,20.90
2019-04-22T09:55:37.452Z,20.90
2019-04-22T09:58:07.118Z,20.70
2019-04-22T10:00:42.979Z,20.90
2019-04-22T10:03:07.106Z,21.00
2019-04-22T10:05:40.771Z,21.30
2019-04-22T10:08:21.852Z,21.30
2019-04-22T10:10:46.479Z,21.40
2019-04-22T10:13:18.940Z,21.50
2019-04-22T10:15:51.507Z,21.50
2019-04-22T10:18:20.308Z,21.50
2019-04-22T10:20:51.861Z,21.30
2019-04-22T10:23:20.307Z,21.10
2019-04-22T10:25:45.495Z,21.00
2019-04-22T10:28:26.985Z,20.80
2019-04-22T10:30:47.059Z,21.00
2019-04-22T10:33:12.114Z,21.30
2019-04-22T10:35:25.291Z,21.50
2019-04-22T10:37:54.216Z,21.50
2019-04-22T10:40:30.338Z,21.40
2019-04-22T10:43:03.099Z,21.10
2019-04-22T10:45:32.408Z,21.30
2019-04-22T10:48:01.652Z,21.30
2019-04-22T10:50:42.915Z,21.30
2019-04-22T10:53:13.314Z,21.20
2019-04-22T10:55:45.166Z,21.10
2019-04-22T10:58:14.830Z,21.10
2019-04-22T11:00:45.330Z,21.10
2019-04-22T11:03:14.401Z,21.10
2019-04-22T11:05:44.280Z,21.00
2019-04-22T11:08:20.416Z,21.10
2019-04-22T11:11:00.729Z,21.20
2019-04-22T11:13:15.890Z,21.30
2019-04-22T11:15:46.640Z,21.30
2019-04-22T11:18:17.791Z,21.20
2019-04-22T11:20:47.392Z,21.10
2019-04-22T11:23:16.621Z,21.10
2019-04-22T11:25:46.099Z,21.10
2019-04-22T11:28:16.042Z,21.10
2019-04-22T11:30:45.225Z,21.10
2019-04-22T11:33:14.493Z,21.30
2019-04-22T11:35:43.896Z,21.30
2019-04-22T11:38:13.078Z,21.60
2019-04-22T11:40:46.270Z,21.60
2019-04-22T11:43:12.378Z,21.60
2019-04-22T11:45:42.595Z,21.70
2019-04-22T11:48:11.569Z,21.90
2019-04-22T11:50:41.981Z,21.70
2019-04-22T11:53:10.974Z,21.50
2019-04-22T11:55:40.594Z,21.30
2019-04-22T11:58:10.641Z,21.30
2019-04-22T12:00:40.939Z,21.40
2019-04-22T12:03:10.668Z,21.30
2019-04-22T12:05:39.881Z,21.30
2019-04-22T12:08:09.240Z,21.20
2019-04-22T12:10:46.843Z,21.50
2019-04-22T12:13:08.199Z,21.60
2019-04-22T12:15:37.379Z,21.60
2019-04-22T12:18:07.071Z,21.60
2019-04-22T12:20:39.170Z,21.50
2019-04-22T12:23:09.395Z,21.60
2019-04-22T12:25:47.634Z,21.70
2019-04-22T12:28:09.143Z,21.50
2019-04-22T12:30:39.673Z,21.50
2019-04-22T12:33:10.949Z,21.60
2019-04-22T12:35:38.809Z,21.80
2019-04-22T12:38:10.276Z,21.70
2019-04-22T12:40:48.609Z,21.90
2019-04-22T12:43:12.175Z,22.00
2019-04-22T12:45:40.395Z,22.10
2019-04-22T12:48:10.131Z,22.20
2019-04-22T12:50:43.462Z,22.50
2019-04-22T12:53:13.853Z,22.50
2019-04-22T12:55:39.754Z,22.40
2019-04-22T12:58:09.861Z,22.30
2019-04-22T13:00:40.133Z,22.40
2019-04-22T13:03:10.959Z,22.60
2019-04-22T13:05:40.877Z,22.60
2019-04-22T13:08:11.552Z,22.50
2019-04-22T13:10:50.495Z,22.70
2019-04-22T13:13:11.288Z,22.60
2019-04-22T13:15:41.290Z,22.40
2019-04-22T13:18:19.261Z,22.20
2019-04-22T13:20:44.291Z,22.00
2019-04-22T13:23:13.846Z,22.00
2019-04-22T13:25:42.943Z,22.00
2019-04-22T13:28:13.283Z,22.20
2019-04-22T13:30:41.840Z,22.30
2019-04-22T13:33:10.856Z,22.20
2019-04-22T13:35:39.808Z,22.20
2019-04-22T13:38:09.090Z,22.20
2019-04-22T13:40:39.403Z,22.10
2019-04-22T13:43:09.075Z,21.90
2019-04-22T13:45:38.602Z,21.90
2019-04-22T13:48:22.072Z,22.00
2019-04-22T13:51:03.972Z,22.00
2019-04-22T13:53:46.161Z,22.10
2019-04-22T13:56:07.234Z,22.10
2019-04-22T13:58:21.921Z,22.00
2019-04-22T14:00:40.603Z,22.00
2019-04-22T14:03:18.258Z,22.10
2019-04-22T14:05:53.016Z,22.20
2019-04-22T14:08:24.878Z,22.40
2019-04-22T14:10:54.384Z,22.50
2019-04-22T14:13:23.850Z,22.50
2019-04-22T14:15:53.068Z,22.50
2019-04-22T14:18:23.124Z,22.70
2019-04-22T14:20:52.072Z,23.00
2019-04-22T14:23:22.555Z,23.10
2019-04-22T14:25:52.802Z,23.20
2019-04-22T14:28:23.364Z,22.90
2019-04-22T14:30:52.801Z,22.50
2019-04-22T14:33:22.402Z,22.40
2019-04-22T14:35:51.996Z,22.50
2019-04-22T14:38:21.873Z,22.30
2019-04-22T14:40:51.914Z,22.30
2019-04-22T14:43:50.191Z,22.10
2019-04-22T14:46:20.706Z,21.90
2019-04-22T14:48:46.030Z,22.00
2019-04-22T14:51:14.842Z,22.00
2019-04-22T14:53:43.487Z,21.90
2019-04-22T14:55:54.648Z,21.90
2019-04-22T14:58:24.666Z,21.90
2019-04-22T15:00:55.182Z,22.00
2019-04-22T15:03:23.858Z,22.00
2019-04-22T15:05:54.419Z,21.90
2019-04-22T15:08:22.510Z,21.90
2019-04-22T15:10:51.777Z,21.80
2019-04-22T15:13:21.294Z,21.70
2019-04-22T15:15:56.829Z,21.60
2019-04-22T15:18:41.990Z,21.60
2019-04-22T15:21:16.934Z,21.50
2019-04-22T15:23:46.680Z,21.50
2019-04-22T15:26:17.789Z,21.40
2019-04-22T15:28:47.222Z,21.30
2019-04-22T15:31:17.377Z,21.40
2019-04-22T15:33:50.126Z,21.30
2019-04-22T15:36:16.217Z,21.30
2019-04-22T15:38:45.213Z,21.30
2019-04-22T15:41:14.666Z,21.30
2019-04-22T15:43:45.698Z,21.20
2019-04-22T15:46:15.963Z,21.20
2019-04-22T15:48:46.283Z,21.00
2019-04-22T15:51:16.329Z,20.90
2019-04-22T15:53:45.567Z,20.90
2019-04-22T15:56:14.763Z,20.80
2019-04-22T15:58:43.898Z,20.70
2019-04-22T16:01:21.679Z,20.70
2019-04-22T16:03:42.798Z,20.70
2019-04-22T16:06:12.251Z,20.60
2019-04-22T16:08:41.254Z,20.60
2019-04-22T16:11:11.422Z,20.50
2019-04-22T16:13:42.176Z,20.40
2019-04-22T16:16:10.642Z,20.40
2019-04-22T16:18:40.294Z,20.40
2019-04-22T16:21:09.465Z,20.40
2019-04-22T16:23:40.469Z,20.30
2019-04-22T16:26:18.025Z,20.30
2019-04-22T16:28:47.431Z,20.30
2019-04-22T16:31:17.563Z,20.20
2019-04-22T16:33:47.995Z,20.20
2019-04-22T16:36:16.901Z,20.20
2019-04-22T16:38:46.859Z,20.10
2019-04-22T16:41:17.075Z,20.10
2019-04-22T16:43:46.724Z,20.10
2019-04-22T16:46:15.904Z,20.10
2019-04-22T16:48:45.420Z,20.10
2019-04-22T16:51:15.976Z,20.00
2019-04-22T16:53:45.217Z,20.00
2019-04-22T16:56:15.146Z,20.00
2019-04-22T16:58:44.310Z,19.90
2019-04-22T17:01:32.624Z,19.90
2019-04-22T17:04:16.426Z,19.90
2019-04-22T17:06:50.665Z,19.80
2019-04-22T17:09:19.824Z,19.90
2019-04-22T17:11:49.890Z,19.80
2019-04-22T17:14:27.270Z,19.80
2019-04-22T17:16:52.738Z,19.80
2019-04-22T17:19:21.639Z,19.70
2019-04-22T17:21:51.001Z,19.60
2019-04-22T17:24:19.897Z,19.60
2019-04-22T17:26:48.847Z,19.60
2019-04-22T17:29:18.649Z,19.60
2019-04-22T17:31:56.434Z,19.50
2019-04-22T17:34:17.868Z,19.40
2019-04-22T17:36:49.152Z,19.30
2019-04-22T17:39:31.608Z,19.20
2019-04-22T17:42:12.493Z,19.20
2019-04-22T17:44:42.615Z,19.10
2019-04-22T17:47:20.637Z,19.10
2019-04-22T17:50:00.380Z,19.00
2019-04-22T17:52:42.053Z,18.90
2019-04-22T17:54:51.497Z,18.90
2019-04-22T17:57:28.008Z,18.80
2019-04-22T17:59:55.269Z,18.70
2019-04-22T18:02:26.781Z,18.70
2019-04-22T18:04:50.780Z,18.60
2019-04-22T18:07:37.071Z,18.50
2019-04-22T18:12:40.093Z,18.30
2019-04-22T18:15:17.799Z,18.30
2019-04-22T18:17:41.202Z,18.30
2019-04-22T18:19:58.332Z,18.30
2019-04-22T18:22:24.512Z,18.20
2019-04-22T18:24:58.201Z,18.10
2019-04-22T18:27:55.179Z,18.10
2019-04-22T18:30:03.904Z,18.00
2019-04-22T18:32:30.835Z,18.00
2019-04-22T18:35:00.847Z,17.90
2019-04-22T18:37:41.029Z,17.90
2019-04-22T18:40:12.975Z,17.80
2019-04-22T18:42:45.690Z,17.80
2019-04-22T18:45:32.493Z,17.70
2019-04-22T18:47:41.359Z,17.70
2019-04-22T18:50:08.670Z,17.60
2019-04-22T18:52:43.602Z,17.50
2019-04-22T18:55:16.395Z,17.50
2019-04-22T18:57:59.126Z,17.50
2019-04-22T19:00:21.334Z,17.50
2019-04-22T19:02:56.972Z,17.40
2019-04-22T19:05:34.783Z,17.40
2019-04-22T19:08:18.396Z,17.30
2019-04-22T19:11:00.697Z,17.20
2019-04-22T19:15:54.326Z,17.10
2019-04-22T19:18:25.648Z,17.10
2019-04-22T19:20:53.742Z,17.10
2019-04-22T19:23:25.712Z,17.00
2019-04-22T19:25:43.788Z,17.00
2019-04-22T19:28:23.912Z,16.90
2019-04-22T19:30:47.969Z,16.90
2019-04-22T19:33:23.857Z,16.80
2019-04-22T19:35:43.317Z,16.70
2019-04-22T19:38:14.295Z,16.60
2019-04-22T19:41:00.507Z,16.60
2019-04-22T19:43:25.076Z,16.50
2019-04-22T19:45:53.708Z,16.50
2019-04-22T19:48:35.951Z,16.40
2019-04-22T19:51:06.112Z,16.30
2019-04-22T19:53:30.772Z,16.30
2019-04-22T19:55:54.095Z,16.20
2019-04-22T19:58:29.242Z,16.20
2019-04-22T20:01:16.142Z,16.10
2019-04-22T20:04:08.627Z,16.10
2019-04-22T20:06:35.308Z,16.20
2019-04-22T20:09:05.750Z,16.00
2019-04-22T20:11:34.192Z,16.00
2019-04-22T20:14:06.381Z,16.10
2019-04-22T20:16:32.528Z,16.00
2019-04-22T20:19:15.062Z,15.90
2019-04-22T20:21:40.598Z,15.90
2019-04-22T20:24:00.859Z,15.80
2019-04-22T20:26:45.691Z,15.80
2019-04-22T20:29:11.674Z,15.80
2019-04-22T20:31:45.208Z,15.70
2019-04-22T20:34:16.190Z,15.70
2019-04-22T20:39:06.467Z,15.60
2019-04-22T20:41:36.716Z,15.70
2019-04-22T20:44:15.941Z,15.70
2019-04-22T20:46:44.645Z,15.60
2019-04-22T20:49:15.191Z,15.60
2019-04-22T20:51:55.639Z,15.50
2019-04-22T20:54:11.558Z,15.40
2019-04-22T20:56:36.929Z,15.50
2019-04-22T20:59:16.285Z,15.30
2019-04-22T21:01:45.811Z,15.30
2019-04-22T21:04:01.547Z,15.30
2019-04-22T21:06:42.893Z,15.30
2019-04-22T21:09:18.549Z,15.20
2019-04-22T21:11:45.148Z,15.00
2019-04-22T21:14:18.864Z,15.00
2019-04-22T21:16:51.604Z,15.00
2019-04-22T21:19:32.464Z,14.90
2019-04-22T21:21:50.200Z,14.80
2019-04-22T21:24:18.631Z,14.80
2019-04-22T21:26:51.695Z,14.70
2019-04-22T21:29:15.929Z,14.70
2019-04-22T21:31:53.122Z,14.70
2019-04-22T21:34:17.257Z,14.70
2019-04-22T21:36:56.099Z,14.70
2019-04-22T21:39:17.706Z,14.70
2019-04-22T21:41:52.817Z,14.70
2019-04-22T21:44:20.452Z,14.60
2019-04-22T21:47:03.122Z,14.50
2019-04-22T21:49:29.694Z,14.50
2019-04-22T21:52:01.299Z,14.50
2019-04-22T21:54:28.348Z,14.40
2019-04-22T21:59:40.207Z,14.40
2019-04-22T22:02:09.903Z,14.40
2019-04-22T22:04:36.064Z,14.30
2019-04-22T22:06:58.942Z,14.40
2019-04-22T22:09:42.961Z,14.30
2019-04-22T22:12:08.193Z,14.10
2019-04-22T22:14:39.200Z,14.10
2019-04-22T22:17:15.865Z,14.10
2019-04-22T22:19:44.445Z,13.90
2019-04-22T22:22:28.421Z,13.90
2019-04-22T22:24:45.177Z,14.00
2019-04-22T22:27:14.238Z,13.80
2019-04-22T22:32:16.532Z,13.60
2019-04-22T22:34:46.501Z,13.60
2019-04-22T22:37:11.292Z,13.60
2019-04-22T22:39:41.747Z,13.50
2019-04-22T22:42:01.686Z,13.50
2019-04-22T22:44:36.819Z,13.50
2019-04-22T22:47:18.286Z,13.40
2019-04-22T22:54:54.203Z,13.30
2019-04-22T22:57:29.314Z,13.10
2019-04-22T22:59:50.064Z,13.00
2019-04-22T23:02:22.982Z,13.10
2019-04-22T23:04:51.177Z,13.10
2019-04-22T23:07:28.774Z,13.10
2019-04-22T23:09:58.596Z,13.10
2019-04-22T23:12:34.735Z,13.00
2019-04-22T23:14:54.386Z,13.00
2019-04-22T23:17:13.549Z,12.80
2019-04-22T23:19:40.459Z,12.70
2019-04-22T23:22:17.880Z,12.70
2019-04-22T23:25:00.231Z,12.70
2019-04-22T23:27:40.352Z,12.70
2019-04-22T23:30:04.058Z,12.60
2019-04-22T23:32:37.730Z,12.50
2019-04-22T23:35:16.768Z,12.50
2019-04-22T23:37:54.286Z,12.60
2019-04-22T23:40:32.598Z,12.60
2019-04-22T23:42:58.886Z,12.70
2019-04-22T23:45:26.795Z,12.80
2019-04-22T23:47:46.157Z,12.60
2019-04-22T23:50:26.642Z,12.60
2019-04-22T23:53:00.604Z,12.50
2019-04-22T23:55:34.071Z,12.50
2019-04-22T23:58:13.502Z,12.50
